createdAt,value
2022-08-20T00:02:11.839Z,3.15
2022-08-20T00:04:41.489Z,3.15
2022-08-20T00:07:09.286Z,3.10
2022-08-20T00:09:37.154Z,2.85
2022-08-20T00:12:06.634Z,3.35
2022-08-20T00:14:35.619Z,2.92
2022-08-20T00:17:04.949Z,3.25
2022-08-20T00:19:32.863Z,3.22
2022-08-20T00:22:00.870Z,3.20
2022-08-20T00:24:28.730Z,3.10
2022-08-20T00:26:56.559Z,3.42
2022-08-20T00:29:24.445Z,3.10
2022-08-20T00:31:52.383Z,3.15
2022-08-20T00:34:20.723Z,2.78
2022-08-20T00:36:48.571Z,3.15
2022-08-20T00:39:16.365Z,3.08
2022-08-20T00:41:44.314Z,3.08
2022-08-20T00:44:19.763Z,2.90
2022-08-20T00:46:47.910Z,2.90
2022-08-20T00:49:22.392Z,3.00
2022-08-20T00:51:55.795Z,2.83
2022-08-20T00:54:39.667Z,3.35
2022-08-20T00:57:12.886Z,3.58
2022-08-20T00:59:42.220Z,2.72
2022-08-20T01:02:13.928Z,2.75
2022-08-20T01:04:46.825Z,3.47
2022-08-20T01:07:14.623Z,3.20
2022-08-20T01:09:58.038Z,2.88
2022-08-20T01:12:29.085Z,3.40
2022-08-20T01:14:59.730Z,3.00
2022-08-20T01:17:29.755Z,3.03
2022-08-20T01:20:08.423Z,3.45
2022-08-20T01:23:07.801Z,2.75
2022-08-20T01:26:00.407Z,2.85
2022-08-20T01:28:41.024Z,3.28
2022-08-20T01:31:12.103Z,2.75
2022-08-20T01:33:40.338Z,3.13
2022-08-20T01:36:10.733Z,2.72
2022-08-20T01:38:41.111Z,3.10
2022-08-20T01:42:09.747Z,3.33
2022-08-20T01:44:39.647Z,2.95
2022-08-20T01:47:27.082Z,3.20
2022-08-20T01:50:01.874Z,3.10
2022-08-20T01:52:48.043Z,3.03
2022-08-20T01:55:15.836Z,2.92
2022-08-20T01:57:43.809Z,3.42
2022-08-20T02:00:20.060Z,3.10
2022-08-20T02:02:49.580Z,3.08
2022-08-20T02:05:18.821Z,2.70
2022-08-20T02:07:47.394Z,3.10
2022-08-20T02:10:17.867Z,2.70
2022-08-20T02:12:45.988Z,2.95
2022-08-20T02:15:14.735Z,3.03
2022-08-20T02:17:44.855Z,2.95
2022-08-20T02:20:20.081Z,2.83
2022-08-20T02:22:58.819Z,2.97
2022-08-20T02:25:30.053Z,2.70
2022-08-20T02:28:07.021Z,2.80
2022-08-20T02:30:40.278Z,2.83
2022-08-20T02:33:11.224Z,3.33
2022-08-20T02:35:40.143Z,3.15
2022-08-20T02:38:08.817Z,3.70
2022-08-20T02:40:37.782Z,2.78
2022-08-20T02:43:06.226Z,3.15
2022-08-20T02:45:43.705Z,2.92
2022-08-20T02:48:21.064Z,3.17
2022-08-20T02:50:57.073Z,3.05
2022-08-20T02:53:26.379Z,2.90
2022-08-20T02:55:54.482Z,3.22
2022-08-20T02:58:23.215Z,3.17
2022-08-20T03:00:51.123Z,3.42
2022-08-20T03:03:22.972Z,3.25
2022-08-20T03:05:55.915Z,3.13
2022-08-20T03:08:24.382Z,3.20
2022-08-20T03:10:52.714Z,3.38
2022-08-20T03:13:21.160Z,3.60
2022-08-20T03:15:58.424Z,2.95
2022-08-20T03:19:23.894Z,2.75
2022-08-20T03:21:52.135Z,2.72
2022-08-20T03:24:20.118Z,3.40
2022-08-20T03:26:48.059Z,3.00
2022-08-20T03:29:16.029Z,3.10
2022-08-20T03:31:43.776Z,2.78
2022-08-20T03:34:12.087Z,3.58
2022-08-20T03:36:39.941Z,3.03
2022-08-20T03:39:13.496Z,2.85
2022-08-20T03:41:41.351Z,3.20
2022-08-20T03:44:10.320Z,3.05
2022-08-20T03:46:39.690Z,3.20
2022-08-20T03:49:07.611Z,3.00
2022-08-20T03:51:58.253Z,2.88
2022-08-20T03:54:23.221Z,3.40
2022-08-20T03:56:51.023Z,3.00
2022-08-20T03:59:19.012Z,3.70
2022-08-20T04:01:47.300Z,3.00
2022-08-20T04:04:15.937Z,3.30
2022-08-20T04:06:43.814Z,2.90
2022-08-20T04:09:12.519Z,3.20
2022-08-20T04:11:41.428Z,3.03
2022-08-20T04:14:11.180Z,3.20
2022-08-20T04:16:40.711Z,3.35
2022-08-20T04:19:09.449Z,2.80
2022-08-20T04:21:37.653Z,3.05
2022-08-20T04:24:06.535Z,3.67
2022-08-20T04:26:36.704Z,2.90
2022-08-20T04:29:05.396Z,2.92
2022-08-20T04:31:34.084Z,3.35
2022-08-20T04:34:08.101Z,2.95
2022-08-20T04:36:36.452Z,3.10
2022-08-20T04:39:05.427Z,3.70
2022-08-20T04:41:33.338Z,2.85
2022-08-20T04:44:02.233Z,3.05
2022-08-20T04:46:31.990Z,2.83
2022-08-20T04:49:01.153Z,3.08
2022-08-20T04:51:29.398Z,3.28
2022-08-20T04:53:59.899Z,3.72
2022-08-20T04:56:29.902Z,2.90
2022-08-20T04:59:00.784Z,3.40
2022-08-20T05:01:29.486Z,3.88
2022-08-20T05:03:58.689Z,3.20
2022-08-20T05:06:30.308Z,3.70
2022-08-20T05:08:59.976Z,2.90
2022-08-20T05:11:35.391Z,3.05
2022-08-20T05:14:05.923Z,3.47
2022-08-20T05:16:39.643Z,3.22
2022-08-20T05:19:09.837Z,3.22
2022-08-20T05:21:37.982Z,3.30
2022-08-20T05:24:06.947Z,3.10
2022-08-20T05:26:35.371Z,3.03
2022-08-20T05:29:05.327Z,2.78
2022-08-20T05:31:33.927Z,3.60
2022-08-20T05:34:11.708Z,3.35
2022-08-20T05:36:41.549Z,3.38
2022-08-20T05:39:10.508Z,3.25
2022-08-20T05:41:39.886Z,3.20
2022-08-20T05:44:14.370Z,3.10
2022-08-20T05:46:43.773Z,3.03
2022-08-20T05:49:20.248Z,3.60
2022-08-20T05:51:48.681Z,3.47
2022-08-20T05:54:17.052Z,3.53
2022-08-20T05:56:44.867Z,3.30
2022-08-20T05:59:14.526Z,3.30
2022-08-20T06:01:43.175Z,3.65
2022-08-20T06:04:28.745Z,3.55
2022-08-20T06:07:02.220Z,3.55
2022-08-20T06:09:31.899Z,3.65
2022-08-20T06:12:02.480Z,3.53
2022-08-20T06:14:30.817Z,4.03
2022-08-20T06:17:24.043Z,3.80
2022-08-20T06:19:52.260Z,3.40
2022-08-20T06:22:23.326Z,4.22
2022-08-20T06:24:54.341Z,3.67
2022-08-20T06:27:22.748Z,3.83
2022-08-20T06:29:51.549Z,3.97
2022-08-20T06:32:28.768Z,4.13
2022-08-20T06:35:02.388Z,3.83
2022-08-20T06:37:32.713Z,4.15
2022-08-20T06:40:07.520Z,3.53
2022-08-20T06:42:35.931Z,3.92
2022-08-20T06:45:07.613Z,3.97
2022-08-20T06:47:37.211Z,3.72
2022-08-20T06:50:07.941Z,3.90
2022-08-20T06:52:52.804Z,3.85
2022-08-20T06:55:21.733Z,3.70
2022-08-20T06:57:58.157Z,4.07
2022-08-20T07:00:26.763Z,4.53
2022-08-20T07:02:54.560Z,3.08
2022-08-20T07:05:22.679Z,3.17
2022-08-20T07:07:51.279Z,3.95
2022-08-20T07:10:20.909Z,3.58
2022-08-20T07:12:50.684Z,3.92
2022-08-20T07:15:21.256Z,3.50
2022-08-20T07:17:58.779Z,3.47
2022-08-20T07:20:29.212Z,3.95
2022-08-20T07:22:57.430Z,3.47
2022-08-20T07:25:26.403Z,3.42
2022-08-20T07:27:58.812Z,3.50
2022-08-20T07:30:55.943Z,3.35
2022-08-20T07:33:29.153Z,3.90
2022-08-20T07:36:04.339Z,3.72
2022-08-20T07:38:33.752Z,3.83
2022-08-20T07:41:10.242Z,3.60
2022-08-20T07:43:39.874Z,3.67
2022-08-20T07:46:09.273Z,3.83
2022-08-20T07:48:46.327Z,3.00
2022-08-20T07:51:17.212Z,3.80
2022-08-20T07:53:46.652Z,3.70
2022-08-20T07:56:18.029Z,4.22
2022-08-20T07:58:50.425Z,3.85
2022-08-20T08:01:30.602Z,3.88
2022-08-20T08:03:59.782Z,3.70
2022-08-20T08:06:31.373Z,3.65
2022-08-20T08:09:07.303Z,3.67
2022-08-20T08:11:38.284Z,2.95
2022-08-20T08:14:07.508Z,3.40
2022-08-20T08:16:36.332Z,3.17
2022-08-20T08:19:07.080Z,3.92
2022-08-20T08:21:35.013Z,3.22
2022-08-20T08:24:03.446Z,3.47
2022-08-20T08:26:31.557Z,3.42
2022-08-20T08:28:59.461Z,3.40
2022-08-20T08:31:27.493Z,3.35
2022-08-20T08:33:55.784Z,3.80
2022-08-20T08:36:24.942Z,3.25
2022-08-20T08:38:54.184Z,3.20
2022-08-20T08:41:32.452Z,3.28
2022-08-20T08:44:13.195Z,3.80
2022-08-20T08:46:43.788Z,3.42
2022-08-20T08:49:15.559Z,3.10
2022-08-20T08:52:04.783Z,3.55
2022-08-20T08:54:35.260Z,3.38
2022-08-20T08:57:03.291Z,3.40
2022-08-20T08:59:52.154Z,3.67
2022-08-20T09:02:26.265Z,3.95
2022-08-20T09:04:56.832Z,3.30
2022-08-20T09:07:27.240Z,3.67
2022-08-20T09:09:55.809Z,3.70
2022-08-20T09:12:28.017Z,4.10
2022-08-20T09:14:56.141Z,3.83
2022-08-20T09:17:24.447Z,3.60
2022-08-20T09:19:52.592Z,3.60
2022-08-20T09:22:23.182Z,3.92
2022-08-20T09:24:51.663Z,3.78
2022-08-20T09:27:19.998Z,3.70
2022-08-20T09:29:48.428Z,4.40
2022-08-20T09:32:20.926Z,3.63
2022-08-20T09:34:59.377Z,3.92
2022-08-20T09:37:36.742Z,3.90
2022-08-20T09:40:06.465Z,4.10
2022-08-20T09:42:41.027Z,4.75
2022-08-20T09:45:11.048Z,3.90
2022-08-20T09:47:46.841Z,3.78
2022-08-20T09:50:28.542Z,3.90
2022-08-20T09:52:58.280Z,3.78
2022-08-20T09:55:42.287Z,4.03
2022-08-20T09:58:21.934Z,3.78
2022-08-20T10:00:49.899Z,4.72
2022-08-20T10:03:18.173Z,3.83
2022-08-20T10:05:46.271Z,3.67
2022-08-20T10:08:14.508Z,4.35
2022-08-20T10:10:42.580Z,3.83
2022-08-20T10:13:13.252Z,4.13
2022-08-20T10:15:43.312Z,3.97
2022-08-20T10:18:12.563Z,4.30
2022-08-20T10:20:40.944Z,3.83
2022-08-20T10:23:09.014Z,4.70
2022-08-20T10:25:37.112Z,3.88
2022-08-20T10:28:06.528Z,4.55
2022-08-20T10:30:35.051Z,3.80
2022-08-20T10:33:02.999Z,3.70
2022-08-20T10:35:31.273Z,4.53
2022-08-20T10:37:59.348Z,4.18
2022-08-20T10:40:27.395Z,4.38
2022-08-20T10:42:55.141Z,4.25
2022-08-20T10:45:25.426Z,3.90
2022-08-20T10:47:53.596Z,4.70
2022-08-20T10:50:21.917Z,4.18
2022-08-20T10:52:49.878Z,4.75
2022-08-20T10:55:19.301Z,4.80
2022-08-20T10:57:47.668Z,5.22
2022-08-20T11:00:17.819Z,4.55
2022-08-20T11:02:45.854Z,5.88
2022-08-20T11:05:13.900Z,5.53
2022-08-20T11:07:50.602Z,5.88
2022-08-20T11:10:27.080Z,6.63
2022-08-20T11:12:55.593Z,5.18
2022-08-20T11:15:23.426Z,5.28
2022-08-20T11:17:51.407Z,6.05
2022-08-20T11:20:21.547Z,5.10
2022-08-20T11:22:49.523Z,5.03
2022-08-20T11:25:17.694Z,5.45
2022-08-20T11:27:47.868Z,5.90
2022-08-20T11:30:26.991Z,4.60
2022-08-20T11:32:59.449Z,4.78
2022-08-20T11:35:49.183Z,5.03
2022-08-20T11:38:17.732Z,5.20
2022-08-20T11:40:47.061Z,4.95
2022-08-20T11:43:17.008Z,4.82
2022-08-20T11:45:53.224Z,5.18
2022-08-20T11:48:21.495Z,5.82
2022-08-20T11:50:49.914Z,4.43
2022-08-20T11:53:18.080Z,4.68
2022-08-20T11:55:45.893Z,3.75
2022-08-20T11:58:13.842Z,4.82
2022-08-20T12:00:42.220Z,4.65
2022-08-20T12:03:11.582Z,4.30
2022-08-20T12:05:45.085Z,5.28
2022-08-20T12:08:27.704Z,4.35
2022-08-20T12:11:01.640Z,5.47
2022-08-20T12:13:47.393Z,4.55
2022-08-20T12:16:18.251Z,4.13
2022-08-20T12:18:47.074Z,4.05
2022-08-20T12:21:15.279Z,4.57
2022-08-20T12:23:43.488Z,5.00
2022-08-20T12:26:11.293Z,4.63
2022-08-20T12:28:39.183Z,4.03
2022-08-20T12:31:07.227Z,4.10
2022-08-20T12:33:35.194Z,3.70
2022-08-20T12:36:03.139Z,4.15
2022-08-20T12:38:30.967Z,4.65
2022-08-20T12:40:58.731Z,4.15
2022-08-20T12:43:26.610Z,5.25
2022-08-20T12:45:54.585Z,4.80
2022-08-20T12:48:22.387Z,5.05
2022-08-20T12:50:50.546Z,3.85
2022-08-20T12:53:19.065Z,4.22
2022-08-20T12:55:47.254Z,4.03
2022-08-20T12:58:15.165Z,5.25
2022-08-20T13:00:47.469Z,4.13
2022-08-20T13:03:19.868Z,4.80
2022-08-20T13:05:47.952Z,4.65
2022-08-20T13:08:17.763Z,4.68
2022-08-20T13:10:46.569Z,4.15
2022-08-20T13:13:17.706Z,4.95
2022-08-20T13:15:50.058Z,4.90
2022-08-20T13:18:18.243Z,4.57
2022-08-20T13:20:46.279Z,5.20
2022-08-20T13:23:14.270Z,5.47
2022-08-20T13:25:42.296Z,4.90
2022-08-20T13:28:10.331Z,4.72
2022-08-20T13:30:39.364Z,4.50
2022-08-20T13:33:07.334Z,4.72
2022-08-20T13:35:35.157Z,4.82
2022-08-20T13:38:03.045Z,5.05
2022-08-20T13:40:30.928Z,4.22
2022-08-20T13:43:03.152Z,4.72
2022-08-20T13:45:34.132Z,3.92
2022-08-20T13:48:01.972Z,3.97
2022-08-20T13:50:29.853Z,5.20
2022-08-20T13:52:57.772Z,4.63
2022-08-20T13:55:27.964Z,4.55
2022-08-20T13:57:57.832Z,4.57
2022-08-20T14:00:32.260Z,4.45
2022-08-20T14:03:05.731Z,4.63
2022-08-20T14:05:34.607Z,5.03
2022-08-20T14:08:11.873Z,4.45
2022-08-20T14:10:42.691Z,4.72
2022-08-20T14:13:15.299Z,4.28
2022-08-20T14:15:44.951Z,4.45
2022-08-20T14:18:14.672Z,5.05
2022-08-20T14:20:45.344Z,4.28
2022-08-20T14:23:14.503Z,4.10
2022-08-20T14:25:44.189Z,3.92
2022-08-20T14:28:25.855Z,4.30
2022-08-20T14:30:53.997Z,3.90
2022-08-20T14:33:23.266Z,3.53
2022-08-20T14:35:51.569Z,3.15
2022-08-20T14:38:19.569Z,3.40
2022-08-20T14:40:47.706Z,2.97
2022-08-20T14:43:15.445Z,3.13
2022-08-20T14:45:43.455Z,2.95
2022-08-20T14:48:11.527Z,3.08
2022-08-20T14:50:39.399Z,2.40
2022-08-20T14:53:08.301Z,2.85
2022-08-20T14:55:37.752Z,2.72
2022-08-20T14:58:10.622Z,3.50
2022-08-20T15:00:38.802Z,2.83
2022-08-20T15:03:06.937Z,3.15
2022-08-20T15:05:39.359Z,2.97
2022-08-20T15:08:08.258Z,3.20
2022-08-20T15:10:39.355Z,3.58
2022-08-20T15:13:07.683Z,2.65
2022-08-20T15:15:35.608Z,2.85
2022-08-20T15:18:04.079Z,3.75
2022-08-20T15:20:33.521Z,2.53
2022-08-20T15:23:02.066Z,2.60
2022-08-20T15:25:36.216Z,2.90
2022-08-20T15:28:07.239Z,3.50
2022-08-20T15:30:35.621Z,3.13
2022-08-20T15:33:03.641Z,2.80
2022-08-20T15:35:32.140Z,2.47
2022-08-20T15:38:00.421Z,3.15
2022-08-20T15:40:30.692Z,2.60
2022-08-20T15:43:00.518Z,2.20
2022-08-20T15:45:32.128Z,2.70
2022-08-20T15:48:12.858Z,2.25
2022-08-20T15:51:10.583Z,2.30
2022-08-20T15:54:00.214Z,2.00
2022-08-20T15:56:50.705Z,2.45
2022-08-20T15:59:37.321Z,1.83
2022-08-20T16:02:31.871Z,1.67
2022-08-20T16:05:17.992Z,2.13
2022-08-20T16:08:27.662Z,2.20
2022-08-20T16:11:01.920Z,1.85
2022-08-20T16:13:35.129Z,1.70
2022-08-20T16:16:04.316Z,1.70
2022-08-20T16:18:35.686Z,1.50
2022-08-20T16:21:09.481Z,1.38
2022-08-20T16:23:41.521Z,1.10
2022-08-20T16:26:32.762Z,1.50
2022-08-20T16:29:18.763Z,1.10
2022-08-20T16:32:14.142Z,1.30
2022-08-20T16:34:50.656Z,1.15
2022-08-20T16:37:44.262Z,1.20
2022-08-20T16:40:23.194Z,0.77
2022-08-20T16:42:53.534Z,0.82
2022-08-20T16:45:36.139Z,1.00
2022-08-20T16:48:07.413Z,1.45
2022-08-20T16:50:39.560Z,1.13
2022-08-20T16:53:14.010Z,1.90
2022-08-20T16:55:42.276Z,1.05
2022-08-20T16:58:10.308Z,0.70
2022-08-20T17:00:45.046Z,1.10
2022-08-20T17:03:31.601Z,0.80
2022-08-20T17:06:17.712Z,0.65
2022-08-20T17:08:49.904Z,0.70
2022-08-20T17:11:25.122Z,1.27
2022-08-20T17:14:08.283Z,0.90
2022-08-20T17:16:48.209Z,0.98
2022-08-20T17:19:34.488Z,0.75
2022-08-20T17:22:11.185Z,0.88
2022-08-20T17:24:40.382Z,0.90
2022-08-20T17:27:15.904Z,0.93
2022-08-20T17:29:52.557Z,1.20
2022-08-20T17:32:28.933Z,0.68
2022-08-20T17:35:00.107Z,0.90
2022-08-20T17:37:42.103Z,1.02
2022-08-20T17:40:19.796Z,0.75
2022-08-20T17:43:05.162Z,0.93
2022-08-20T17:45:46.043Z,0.85
2022-08-20T17:48:23.886Z,0.90
2022-08-20T17:50:52.735Z,0.88
2022-08-20T17:53:24.814Z,0.80
2022-08-20T17:56:01.851Z,1.02
2022-08-20T17:58:54.398Z,0.80
2022-08-20T18:01:24.603Z,1.00
2022-08-20T18:03:53.603Z,0.70
2022-08-20T18:06:51.962Z,0.88
2022-08-20T18:09:58.423Z,1.00
2022-08-20T18:13:02.163Z,0.90
2022-08-20T18:15:45.822Z,1.48
2022-08-20T18:18:27.078Z,0.82
2022-08-20T18:21:30.071Z,0.95
2022-08-20T18:24:03.153Z,1.23
2022-08-20T18:26:45.573Z,0.90
2022-08-20T18:29:14.591Z,1.23
2022-08-20T18:31:48.846Z,1.00
2022-08-20T18:34:22.427Z,1.52
2022-08-20T18:37:02.738Z,1.25
2022-08-20T18:39:32.423Z,1.35
2022-08-20T18:42:03.333Z,1.80
2022-08-20T18:44:37.271Z,1.45
2022-08-20T18:47:06.782Z,1.93
2022-08-20T18:49:39.604Z,1.35
2022-08-20T18:52:26.992Z,1.52
2022-08-20T18:54:57.490Z,1.10
2022-08-20T18:57:35.633Z,1.35
2022-08-20T19:00:15.010Z,1.30
2022-08-20T19:03:10.681Z,1.00
2022-08-20T19:08:08.905Z,0.90
2022-08-20T19:10:57.869Z,1.20
2022-08-20T19:13:40.895Z,1.23
2022-08-20T19:16:31.247Z,1.10
2022-08-20T19:18:59.278Z,1.27
2022-08-20T19:21:32.167Z,1.15
2022-08-20T19:24:03.400Z,1.10
2022-08-20T19:26:33.561Z,1.13
2022-08-20T19:29:02.556Z,1.23
2022-08-20T19:31:33.686Z,1.13
2022-08-20T19:34:21.690Z,1.23
2022-08-20T19:37:35.434Z,0.93
2022-08-20T19:40:22.025Z,1.75
2022-08-20T19:42:52.785Z,1.38
2022-08-20T19:45:34.643Z,1.27
2022-08-20T19:48:08.736Z,0.80
2022-08-20T19:50:55.451Z,1.10
2022-08-20T19:53:30.279Z,1.17
2022-08-20T19:56:22.495Z,1.55
2022-08-20T19:59:08.754Z,1.10
2022-08-20T20:01:37.160Z,1.30
2022-08-20T20:04:15.114Z,1.00
2022-08-20T20:06:46.556Z,1.00
2022-08-20T20:09:26.703Z,0.98
2022-08-20T20:12:00.180Z,1.27
2022-08-20T20:14:36.152Z,1.50
2022-08-20T20:17:09.827Z,4.15
2022-08-20T20:20:38.869Z,3.05
2022-08-20T20:23:38.785Z,3.65
2022-08-20T20:26:20.049Z,5.20
2022-08-20T20:28:51.609Z,6.22
2022-08-20T20:31:31.357Z,8.43
2022-08-20T20:34:13.424Z,5.57
2022-08-20T20:36:46.666Z,7.18
2022-08-20T20:39:44.795Z,7.22
2022-08-20T20:42:26.755Z,6.53
2022-08-20T20:44:57.608Z,6.50
2022-08-20T20:47:32.470Z,7.68
2022-08-20T20:50:09.771Z,7.28
2022-08-20T20:52:49.263Z,7.28
2022-08-20T20:55:34.282Z,8.02
2022-08-20T21:00:33.107Z,7.10
2022-08-20T21:03:03.958Z,6.03
2022-08-20T21:05:40.325Z,5.80
2022-08-20T21:08:11.993Z,7.72
2022-08-20T21:10:41.873Z,6.03
2022-08-20T21:13:10.732Z,5.57
2022-08-20T21:15:39.824Z,5.55
2022-08-20T21:18:09.348Z,5.05
2022-08-20T21:20:37.850Z,6.53
2022-08-20T21:23:08.749Z,5.30
2022-08-20T21:25:36.808Z,5.80
2022-08-20T21:28:05.183Z,5.55
2022-08-20T21:30:34.068Z,4.45
2022-08-20T21:33:02.044Z,5.28
2022-08-20T21:35:31.660Z,5.85
2022-08-20T21:37:59.578Z,5.05
2022-08-20T21:40:28.285Z,4.50
2022-08-20T21:42:59.251Z,5.10
2022-08-20T21:45:28.704Z,4.65
2022-08-20T21:47:57.840Z,5.80
2022-08-20T21:50:26.381Z,4.28
2022-08-20T21:52:59.194Z,4.30
2022-08-20T21:55:29.027Z,5.03
2022-08-20T21:57:57.662Z,3.80
2022-08-20T22:00:47.397Z,6.18
2022-08-20T22:03:16.329Z,3.80
2022-08-20T22:05:48.640Z,4.10
2022-08-20T22:08:18.633Z,3.78
2022-08-20T22:10:46.918Z,4.60
2022-08-20T22:13:14.919Z,3.72
2022-08-20T22:15:43.811Z,3.05
2022-08-20T22:18:11.727Z,4.22
2022-08-20T22:20:40.934Z,4.13
2022-08-20T22:23:12.069Z,3.72
2022-08-20T22:25:43.117Z,4.35
2022-08-20T22:28:10.980Z,3.50
2022-08-20T22:30:42.201Z,3.95
2022-08-20T22:33:14.391Z,3.25
2022-08-20T22:35:49.688Z,2.70
2022-08-20T22:38:18.534Z,3.58
2022-08-20T22:40:48.944Z,3.42
2022-08-20T22:43:16.941Z,4.05
2022-08-20T22:45:49.015Z,3.33
2022-08-20T22:48:21.423Z,2.53
2022-08-20T22:50:50.240Z,2.70
2022-08-20T22:53:21.605Z,2.90
2022-08-20T22:55:50.003Z,3.03
2022-08-20T22:58:19.411Z,2.15
2022-08-20T23:00:58.693Z,2.53
2022-08-20T23:03:40.214Z,2.42
2022-08-20T23:06:09.120Z,2.60
2022-08-20T23:08:42.254Z,2.50
2022-08-20T23:11:13.236Z,2.92
2022-08-20T23:13:41.020Z,2.17
2022-08-20T23:16:08.905Z,2.35
2022-08-20T23:18:36.731Z,2.20
2022-08-20T23:21:05.166Z,2.20
2022-08-20T23:23:33.037Z,2.38
2022-08-20T23:26:01.509Z,2.58
2022-08-20T23:28:32.078Z,2.65
2022-08-20T23:31:00.081Z,2.33
2022-08-20T23:33:27.895Z,2.70
2022-08-20T23:35:56.103Z,2.47
2022-08-20T23:38:23.864Z,2.58
2022-08-20T23:40:51.649Z,2.70
2022-08-20T23:43:19.588Z,2.63
2022-08-20T23:45:47.784Z,1.88
2022-08-20T23:48:15.969Z,2.28
2022-08-20T23:50:43.973Z,1.83
2022-08-20T23:53:14.277Z,1.70
2022-08-20T23:55:45.056Z,2.38
2022-08-20T23:58:13.065Z,2.15
